New Orleans, Louisiana
Traffic Map
Current Weather Conditions
New Orleans, Louisiana
Overcast
Overcast
52°
Feels Like: 52°
Wind Chill: 52° Ceiling: 3000
Heat Index: 52° Visibility: 10mi
Dew Point: 45° Wind: 12mph
Humidity: 77% Direction: 80° (E)
Pressure: 30.2in Gusts: 0mph
Raw Report DataKNEW 162353Z 08010KT 10SM OVC030 11/07 A3020 RMK AO2 SLP218 T01110072 10122 20111 55005
Traffic Incident Summary
Active as of:
Severity:
Category:
InformationThere was an issue retrieving the traffic information for this location. Please try a different location or try again shortly.
Advertisements